createdAt,value
2018-08-18T00:00:21.420Z,95013.63
2018-08-18T00:02:50.357Z,95016.06
2018-08-18T00:05:19.574Z,95017.80
2018-08-18T00:07:48.861Z,95017.92
2018-08-18T00:10:22.427Z,95023.92
2018-08-18T00:12:51.600Z,95018.61
2018-08-18T00:15:21.211Z,95028.84
2018-08-18T00:17:50.129Z,95014.73
2018-08-18T00:20:21.233Z,95028.48
2018-08-18T00:22:50.270Z,95029.45
2018-08-18T00:25:19.272Z,95028.69
2018-08-18T00:27:49.712Z,95025.69
2018-08-18T00:30:23.896Z,95025.69
2018-08-18T00:32:54.132Z,95033.57
2018-08-18T00:35:23.357Z,95034.20
2018-08-18T00:37:52.625Z,95034.35
2018-08-18T00:40:22.564Z,95034.05
2018-08-18T00:42:51.757Z,95032.66
2018-08-18T00:45:20.849Z,95026.41
2018-08-18T00:47:51.228Z,95030.38
2018-08-18T00:50:34.104Z,95018.35
2018-08-18T00:53:03.732Z,95019.03
2018-08-18T00:55:32.788Z,95018.03
2018-08-18T00:58:01.667Z,95023.59
2018-08-18T01:00:30.725Z,95023.70
2018-08-18T01:03:00.930Z,95022.48
2018-08-18T01:05:30.009Z,95014.03
2018-08-18T01:07:59.139Z,95024.15
2018-08-18T01:10:29.059Z,95025.62
2018-08-18T01:12:58.771Z,95026.54
2018-08-18T01:15:29.353Z,95023.10
2018-08-18T01:17:58.765Z,95012.54
2018-08-18T01:20:27.728Z,95019.39
2018-08-18T01:23:00.242Z,95017.39
2018-08-18T01:25:30.043Z,95019.89
2018-08-18T01:27:59.946Z,95023.69
2018-08-18T01:30:29.152Z,95020.16
2018-08-18T01:32:58.155Z,95016.71
2018-08-18T01:35:27.069Z,95014.28
2018-08-18T01:37:55.958Z,95018.80
2018-08-18T01:40:25.021Z,95020.18
2018-08-18T01:42:53.822Z,95018.10
2018-08-18T01:45:23.314Z,95019.98
2018-08-18T01:47:52.337Z,95022.55
2018-08-18T01:50:21.517Z,95028.66
2018-08-18T01:52:50.846Z,95033.73
2018-08-18T01:55:19.915Z,95043.90
2018-08-18T01:57:49.327Z,95038.02
2018-08-18T02:00:26.630Z,95028.98
2018-08-18T02:02:55.606Z,95025.36
2018-08-18T02:05:24.909Z,95024.14
2018-08-18T02:07:54.755Z,95029.43
2018-08-18T02:10:23.624Z,95024.41
2018-08-18T02:13:02.400Z,95021.00
2018-08-18T02:15:31.919Z,95024.27
2018-08-18T02:18:00.848Z,95030.29
2018-08-18T02:20:30.361Z,95032.06
2018-08-18T02:22:59.794Z,95023.38
2018-08-18T02:25:28.547Z,95020.50
2018-08-18T02:27:57.627Z,95014.52
2018-08-18T02:30:26.526Z,95020.70
2018-08-18T02:32:55.503Z,95021.73
2018-08-18T02:35:24.986Z,95013.44
2018-08-18T02:37:54.124Z,95029.20
2018-08-18T02:40:23.627Z,95021.00
2018-08-18T02:42:52.783Z,95014.23
2018-08-18T02:45:21.743Z,95009.83
2018-08-18T02:48:04.335Z,95017.23
2018-08-18T02:50:33.590Z,95020.51
2018-08-18T02:53:07.094Z,95022.55
2018-08-18T02:55:35.805Z,95027.11
2018-08-18T02:58:04.542Z,95022.31
2018-08-18T03:00:35.395Z,95030.87
2018-08-18T03:03:04.867Z,95032.00
2018-08-18T03:05:35.474Z,95037.06
2018-08-18T03:08:04.710Z,95042.48
2018-08-18T03:10:33.971Z,95044.75
2018-08-18T03:13:03.601Z,95038.98
2018-08-18T03:16:12.272Z,95041.48
2018-08-18T03:18:56.880Z,95046.42
2018-08-18T03:21:31.727Z,95059.67
2018-08-18T03:24:12.282Z,95057.38
2018-08-18T03:26:49.446Z,95057.78
2018-08-18T03:29:19.196Z,95062.55
2018-08-18T03:31:48.481Z,95074.54
2018-08-18T03:34:17.918Z,95073.80
2018-08-18T03:36:49.359Z,95083.61
2018-08-18T03:39:27.336Z,95074.16
2018-08-18T03:42:01.561Z,95075.16
2018-08-18T03:44:31.030Z,95085.64
2018-08-18T03:47:00.071Z,95081.48
2018-08-18T03:49:29.421Z,95089.66
2018-08-18T03:51:59.399Z,95094.05
2018-08-18T03:54:28.366Z,95094.79
2018-08-18T03:56:57.171Z,95101.53
2018-08-18T03:59:26.204Z,95102.07
2018-08-18T04:01:59.694Z,95099.97
2018-08-18T04:04:31.684Z,95100.73
2018-08-18T04:07:01.703Z,95099.70
2018-08-18T04:09:36.521Z,95104.28
2018-08-18T04:12:07.832Z,95109.69
2018-08-18T04:14:39.369Z,95106.46
2018-08-18T04:17:39.236Z,95100.67
2018-08-18T04:20:08.624Z,95095.50
2018-08-18T04:22:38.528Z,95100.19
2018-08-18T04:25:07.660Z,95102.15
2018-08-18T04:27:42.752Z,95091.47
2018-08-18T04:30:17.471Z,95092.02
2018-08-18T04:32:53.992Z,95090.73
2018-08-18T04:35:24.121Z,95095.83
2018-08-18T04:37:53.897Z,95089.48
2018-08-18T04:40:23.419Z,95092.98
2018-08-18T04:42:52.280Z,95094.33
2018-08-18T04:45:22.443Z,95085.80
2018-08-18T04:47:51.345Z,95077.56
2018-08-18T04:50:21.224Z,95081.80
2018-08-18T04:52:51.767Z,95084.84
2018-08-18T04:55:21.046Z,95085.50
2018-08-18T04:57:50.028Z,95086.20
2018-08-18T05:00:19.062Z,95102.34
2018-08-18T05:02:55.010Z,95108.56
2018-08-18T05:05:26.951Z,95112.78
2018-08-18T05:07:56.782Z,95117.34
2018-08-18T05:10:25.668Z,95118.62
2018-08-18T05:12:54.663Z,95117.53
2018-08-18T05:15:24.319Z,95121.54
2018-08-18T05:17:53.339Z,95121.48
2018-08-18T05:20:24.276Z,95131.03
2018-08-18T05:22:54.095Z,95127.51
2018-08-18T05:25:29.106Z,95137.33
2018-08-18T05:27:59.227Z,95139.40
2018-08-18T05:30:28.214Z,95141.30
2018-08-18T05:32:57.275Z,95133.48
2018-08-18T05:35:26.406Z,95133.45
2018-08-18T05:37:55.247Z,95131.66
2018-08-18T05:40:24.257Z,95129.14
2018-08-18T05:42:53.286Z,95129.03
2018-08-18T05:45:30.428Z,95132.85
2018-08-18T05:47:59.443Z,95136.44
2018-08-18T05:50:29.475Z,95131.06
2018-08-18T05:53:24.321Z,95139.78
2018-08-18T05:55:53.099Z,95133.37
2018-08-18T05:58:22.606Z,95126.66
2018-08-18T06:01:27.324Z,95133.64
2018-08-18T06:04:01.183Z,95133.59
2018-08-18T06:06:30.187Z,95138.95
2018-08-18T06:08:59.556Z,95128.98
2018-08-18T06:11:29.447Z,95132.68
2018-08-18T06:13:59.925Z,95138.93
2018-08-18T06:16:29.095Z,95131.62
2018-08-18T06:18:57.918Z,95133.05
2018-08-18T06:21:27.119Z,95126.44
2018-08-18T06:23:56.640Z,95125.90
2018-08-18T06:26:27.031Z,95128.09
2018-08-18T06:28:56.481Z,95125.08
2018-08-18T06:31:25.418Z,95122.42
2018-08-18T06:33:54.531Z,95121.53
2018-08-18T06:36:23.884Z,95107.33
2018-08-18T06:38:53.661Z,95119.16
2018-08-18T06:41:23.114Z,95113.63
2018-08-18T06:43:52.092Z,95120.80
2018-08-18T06:46:21.542Z,95118.27
2018-08-18T06:48:51.685Z,95122.72
2018-08-18T06:51:21.103Z,95118.91
2018-08-18T06:53:50.291Z,95126.08
2018-08-18T06:56:19.902Z,95124.20
2018-08-18T06:58:50.238Z,95125.94
2018-08-18T07:01:18.953Z,95119.70
2018-08-18T07:03:48.239Z,95128.05
2018-08-18T07:06:18.127Z,95122.77
2018-08-18T07:08:52.988Z,95118.90
2018-08-18T07:11:22.107Z,95127.38
2018-08-18T07:13:50.852Z,95123.49
2018-08-18T07:16:19.546Z,95128.05
2018-08-18T07:18:48.268Z,95134.20
2018-08-18T07:21:17.043Z,95127.56
2018-08-18T07:23:45.766Z,95134.80
2018-08-18T07:26:14.543Z,95136.00
2018-08-18T07:28:43.451Z,95136.30
2018-08-18T07:31:12.176Z,95136.59
2018-08-18T07:33:41.089Z,95132.89
2018-08-18T07:36:09.706Z,95135.93
2018-08-18T07:38:38.468Z,95138.09
2018-08-18T07:41:07.683Z,95136.89
2018-08-18T07:43:36.334Z,95137.41
2018-08-18T07:46:07.391Z,95136.72
2018-08-18T07:48:36.502Z,95138.27
2018-08-18T07:51:05.290Z,95130.89
2018-08-18T07:53:34.093Z,95143.19
2018-08-18T07:56:02.876Z,95141.82
2018-08-18T07:58:31.622Z,95143.95
2018-08-18T08:01:00.874Z,95141.73
2018-08-18T08:03:29.636Z,95135.97
2018-08-18T08:05:58.390Z,95139.22
2018-08-18T08:08:34.812Z,95144.77
2018-08-18T08:11:08.924Z,95147.00
2018-08-18T08:13:38.123Z,95143.66
2018-08-18T08:16:06.859Z,95139.39
2018-08-18T08:18:36.491Z,95140.34
2018-08-18T08:21:06.114Z,95149.49
2018-08-18T08:23:35.203Z,95136.65
2018-08-18T08:26:04.199Z,95130.27
2018-08-18T08:28:33.249Z,95135.30
2018-08-18T08:31:02.606Z,95142.36
2018-08-18T08:36:08.602Z,95145.98
2018-08-18T08:38:50.089Z,95132.52
2018-08-18T08:41:19.135Z,95137.81
2018-08-18T08:43:49.187Z,95141.62
2018-08-18T08:46:19.205Z,95136.50
2018-08-18T08:48:55.203Z,95140.95
2018-08-18T08:51:24.787Z,95135.67
2018-08-18T08:53:55.766Z,95137.06
2018-08-18T08:56:44.984Z,95125.17
2018-08-18T08:59:14.055Z,95130.58
2018-08-18T09:01:43.286Z,95141.23
2018-08-18T09:04:12.007Z,95143.27
2018-08-18T09:06:45.842Z,95133.65
2018-08-18T09:09:15.694Z,95128.75
2018-08-18T09:11:44.779Z,95137.12
2018-08-18T09:14:13.550Z,95132.48
2018-08-18T09:16:43.210Z,95147.44
2018-08-18T09:19:12.178Z,95148.13
2018-08-18T09:21:46.331Z,95148.55
2018-08-18T09:24:16.103Z,95138.83
2018-08-18T09:26:58.675Z,95131.34
2018-08-18T09:29:29.335Z,95132.81
2018-08-18T09:31:58.762Z,95126.25
2018-08-18T09:34:28.410Z,95120.27
2018-08-18T09:36:57.556Z,95115.17
2018-08-18T09:39:33.859Z,95117.95
2018-08-18T09:42:05.427Z,95111.29
2018-08-18T09:44:37.298Z,95112.12
2018-08-18T09:47:06.764Z,95111.57
2018-08-18T09:49:35.633Z,95119.73
2018-08-18T09:52:04.880Z,95111.42
2018-08-18T09:54:34.357Z,95111.64
2018-08-18T09:57:04.157Z,95120.17
2018-08-18T09:59:33.399Z,95107.86
2018-08-18T10:02:02.520Z,95109.34
2018-08-18T10:04:31.316Z,95112.89
2018-08-18T10:07:00.157Z,95111.67
2018-08-18T10:09:28.895Z,95108.27
2018-08-18T10:11:57.827Z,95107.43
2018-08-18T10:14:26.754Z,95102.22
2018-08-18T10:16:55.907Z,95097.66
2018-08-18T10:19:25.316Z,95097.98
2018-08-18T10:21:55.167Z,95100.55
2018-08-18T10:24:24.631Z,95094.92
2018-08-18T10:26:58.825Z,95096.39
2018-08-18T10:29:27.546Z,95098.56
2018-08-18T10:31:58.488Z,95090.73
2018-08-18T10:34:28.786Z,95087.83
2018-08-18T10:37:03.022Z,95089.00
2018-08-18T10:39:32.626Z,95083.53
2018-08-18T10:42:09.202Z,95082.16
2018-08-18T10:44:38.246Z,95091.39
2018-08-18T10:47:11.585Z,95086.17
2018-08-18T10:49:51.670Z,95081.33
2018-08-18T10:52:32.623Z,95056.77
2018-08-18T10:55:04.131Z,95085.19
2018-08-18T10:57:44.942Z,95085.83
2018-08-18T11:00:15.660Z,95078.78
2018-08-18T11:02:46.336Z,95083.33
2018-08-18T11:05:15.848Z,95080.09
2018-08-18T11:07:50.590Z,95070.34
2018-08-18T11:10:20.057Z,95072.93
2018-08-18T11:12:48.871Z,95071.44
2018-08-18T11:15:17.782Z,95073.62
2018-08-18T11:17:46.836Z,95065.38
2018-08-18T11:20:25.270Z,95063.47
2018-08-18T11:23:11.860Z,95074.42
2018-08-18T11:25:46.042Z,95064.34
2018-08-18T11:28:15.843Z,95070.01
2018-08-18T11:30:44.776Z,95061.47
2018-08-18T11:33:45.847Z,95057.82
2018-08-18T11:36:15.408Z,95059.17
2018-08-18T11:38:44.438Z,95054.26
2018-08-18T11:41:14.183Z,95051.83
2018-08-18T11:43:46.827Z,95057.38
2018-08-18T11:46:16.027Z,95056.73
2018-08-18T11:48:45.214Z,95061.73
2018-08-18T11:51:14.215Z,95052.44
2018-08-18T11:53:56.869Z,95041.14
2018-08-18T11:56:25.925Z,95046.20
2018-08-18T11:59:07.894Z,95039.80
2018-08-18T12:01:38.371Z,95042.23
2018-08-18T12:04:07.573Z,95040.16
2018-08-18T12:06:42.165Z,95038.38
2018-08-18T12:09:12.080Z,95037.33
2018-08-18T12:11:42.598Z,95030.73
2018-08-18T12:14:11.658Z,95022.45
2018-08-18T12:16:40.654Z,95023.52
2018-08-18T12:19:09.331Z,95023.14
2018-08-18T12:21:45.339Z,95016.70
2018-08-18T12:24:17.853Z,95021.66
2018-08-18T12:26:57.485Z,95028.22
2018-08-18T12:29:26.922Z,95036.57
2018-08-18T12:31:55.577Z,95022.88
2018-08-18T12:34:24.515Z,95028.84
2018-08-18T12:36:53.466Z,95017.53
2018-08-18T12:39:22.862Z,95024.62
2018-08-18T12:41:51.906Z,95011.66
2018-08-18T12:44:26.323Z,95017.08
2018-08-18T12:46:55.590Z,95017.50
2018-08-18T12:49:26.008Z,95014.77
2018-08-18T12:51:55.163Z,95003.92
2018-08-18T12:54:24.754Z,95007.70
2018-08-18T12:56:54.299Z,95001.61
2018-08-18T12:59:23.320Z,94998.89
2018-08-18T13:01:52.260Z,95013.77
2018-08-18T13:04:22.165Z,95007.80
2018-08-18T13:06:53.303Z,95016.84
2018-08-18T13:09:24.254Z,94999.83
2018-08-18T13:11:54.637Z,95004.32
2018-08-18T13:14:27.141Z,95008.15
2018-08-18T13:16:55.919Z,94993.61
2018-08-18T13:19:26.671Z,94999.17
2018-08-18T13:21:55.648Z,94994.30
2018-08-18T13:24:24.426Z,94995.63
2018-08-18T13:26:53.491Z,94989.22
2018-08-18T13:29:22.316Z,94997.36
2018-08-18T13:31:51.445Z,94997.28
2018-08-18T13:34:20.263Z,94993.52
2018-08-18T13:36:49.297Z,94995.80
2018-08-18T13:39:19.647Z,94989.00
2018-08-18T13:41:49.596Z,95009.45
2018-08-18T13:44:26.971Z,94999.09
2018-08-18T13:46:55.930Z,94990.06
2018-08-18T13:49:25.812Z,95012.14
2018-08-18T13:51:54.546Z,94987.40
2018-08-18T13:54:23.348Z,94977.27
2018-08-18T13:56:52.194Z,94965.97
2018-08-18T13:59:35.799Z,94984.38
2018-08-18T14:02:04.631Z,95002.50
2018-08-18T14:04:33.429Z,94977.59
2018-08-18T14:07:02.634Z,94978.44
2018-08-18T14:09:31.694Z,94973.54
2018-08-18T14:12:06.548Z,94968.94
2018-08-18T14:14:36.067Z,94972.09
2018-08-18T14:17:05.574Z,94977.75
2018-08-18T14:19:35.189Z,94984.48
2018-08-18T14:22:08.462Z,94979.34
2018-08-18T14:24:38.615Z,94973.45
2018-08-18T14:27:16.595Z,94963.89
2018-08-18T14:29:46.152Z,94980.51
2018-08-18T14:32:20.230Z,94973.84
2018-08-18T14:34:55.303Z,94987.23
2018-08-18T14:37:24.971Z,95007.91
2018-08-18T14:39:54.273Z,94982.25
2018-08-18T14:42:23.477Z,94986.06
2018-08-18T14:44:53.380Z,94990.91
2018-08-18T14:47:22.247Z,94982.83
2018-08-18T14:49:53.850Z,94973.93
2018-08-18T14:52:22.623Z,94978.28
2018-08-18T14:54:51.297Z,94987.73
2018-08-18T14:57:20.236Z,94982.17
2018-08-18T14:59:49.031Z,94984.73
2018-08-18T15:02:17.950Z,94969.71
2018-08-18T15:04:47.150Z,94982.49
2018-08-18T15:07:16.076Z,94976.64
2018-08-18T15:09:45.970Z,94989.56
2018-08-18T15:12:15.302Z,94980.39
2018-08-18T15:14:44.974Z,94987.70
2018-08-18T15:17:13.679Z,94976.08
2018-08-18T15:19:42.421Z,94978.98
2018-08-18T15:22:12.708Z,94967.42
2018-08-18T15:24:41.805Z,94969.72
2018-08-18T15:27:10.922Z,94965.91
2018-08-18T15:29:39.668Z,94968.38
2018-08-18T15:32:09.139Z,94970.00
2018-08-18T15:34:38.316Z,94970.47
2018-08-18T15:37:08.195Z,94974.31
2018-08-18T15:39:36.920Z,94961.88
2018-08-18T15:42:05.750Z,94972.95
2018-08-18T15:44:37.822Z,94968.55
2018-08-18T15:47:06.596Z,94977.00
2018-08-18T15:49:35.363Z,94981.79
2018-08-18T15:52:04.131Z,94984.16
2018-08-18T15:54:33.118Z,95000.37
2018-08-18T15:57:01.895Z,94986.62
2018-08-18T15:59:30.523Z,94997.09
2018-08-18T16:01:59.257Z,94991.30
2018-08-18T16:04:28.102Z,94996.73
2018-08-18T16:06:56.972Z,95005.41
2018-08-18T16:09:25.620Z,95002.23
2018-08-18T16:11:54.325Z,95003.33
2018-08-18T16:14:23.078Z,94999.66
2018-08-18T16:17:00.203Z,95005.23
2018-08-18T16:19:31.819Z,94998.80
2018-08-18T16:22:01.100Z,95008.48
2018-08-18T16:24:39.560Z,95007.64
2018-08-18T16:27:08.607Z,95018.88
2018-08-18T16:29:37.998Z,95010.82
2018-08-18T16:32:18.964Z,95029.61
2018-08-18T16:34:48.969Z,95022.47
2018-08-18T16:37:17.660Z,95028.34
2018-08-18T16:39:46.583Z,95050.67
2018-08-18T16:42:15.434Z,95046.94
2018-08-18T16:44:44.098Z,95053.78
2018-08-18T16:47:12.851Z,95044.25
2018-08-18T16:49:41.535Z,95048.25
2018-08-18T16:52:10.327Z,95049.25
2018-08-18T16:54:39.827Z,95042.28
2018-08-18T16:57:08.886Z,95043.92
2018-08-18T16:59:38.499Z,95041.77
2018-08-18T17:02:13.611Z,95044.97
2018-08-18T17:04:42.535Z,95051.83
2018-08-18T17:07:16.597Z,95059.52
2018-08-18T17:09:45.434Z,95063.30
2018-08-18T17:12:22.374Z,95061.22
2018-08-18T17:14:51.119Z,95061.30
2018-08-18T17:17:21.928Z,95067.78
2018-08-18T17:19:50.692Z,95071.53
2018-08-18T17:22:19.558Z,95066.48
2018-08-18T17:24:48.427Z,95074.06
2018-08-18T17:27:17.208Z,95072.28
2018-08-18T17:29:47.622Z,95067.89
2018-08-18T17:32:16.291Z,95072.11
2018-08-18T17:34:45.334Z,95079.86
2018-08-18T17:37:14.219Z,95072.66
2018-08-18T17:39:42.958Z,95076.22
2018-08-18T17:42:11.707Z,95076.02
2018-08-18T17:44:40.386Z,95085.31
2018-08-18T17:47:10.402Z,95082.31
2018-08-18T17:50:13.568Z,95079.50
2018-08-18T17:52:42.610Z,95094.45
2018-08-18T17:55:16.291Z,95092.66
2018-08-18T17:57:45.059Z,95100.60
2018-08-18T18:00:16.894Z,95106.41
2018-08-18T18:02:51.486Z,95108.47
2018-08-18T18:05:22.666Z,95111.25
2018-08-18T18:07:55.314Z,95117.78
2018-08-18T18:10:27.018Z,95114.77
2018-08-18T18:12:55.774Z,95117.99
2018-08-18T18:15:28.086Z,95121.63
2018-08-18T18:17:56.913Z,95128.62
2018-08-18T18:20:28.738Z,95116.82
2018-08-18T18:22:57.793Z,95126.25
2018-08-18T18:25:26.493Z,95129.98
2018-08-18T18:27:55.292Z,95129.94
2018-08-18T18:30:27.555Z,95133.40
2018-08-18T18:32:57.156Z,95137.34
2018-08-18T18:35:26.199Z,95135.00
2018-08-18T18:37:58.451Z,95134.89
2018-08-18T18:40:27.242Z,95131.25
2018-08-18T18:42:56.010Z,95133.09
2018-08-18T18:45:26.095Z,95133.61
2018-08-18T18:47:54.839Z,95130.58
2018-08-18T18:50:23.601Z,95127.94
2018-08-18T18:52:52.322Z,95138.52
2018-08-18T18:55:22.464Z,95136.70
2018-08-18T18:58:03.277Z,95136.63
2018-08-18T19:00:34.059Z,95135.30
2018-08-18T19:03:03.222Z,95133.39
2018-08-18T19:05:33.238Z,95127.78
2018-08-18T19:08:21.570Z,95121.19
2018-08-18T19:10:50.577Z,95129.74
2018-08-18T19:13:20.107Z,95142.36
2018-08-18T19:15:49.126Z,95132.55
2018-08-18T19:18:18.163Z,95142.19
2018-08-18T19:20:47.115Z,95142.99
2018-08-18T19:23:19.947Z,95146.03
2018-08-18T19:25:50.872Z,95142.92
2018-08-18T19:28:22.508Z,95142.84
2018-08-18T19:30:52.094Z,95146.05
2018-08-18T19:33:21.413Z,95151.66
2018-08-18T19:35:52.054Z,95148.38
2018-08-18T19:38:21.963Z,95143.69
2018-08-18T19:40:54.334Z,95145.70
2018-08-18T19:43:26.413Z,95140.67
2018-08-18T19:45:56.360Z,95145.41
2018-08-18T19:48:27.599Z,95153.92
2018-08-18T19:51:01.641Z,95160.28
2018-08-18T19:53:31.884Z,95153.47
2018-08-18T19:56:01.519Z,95157.56
2018-08-18T19:58:30.719Z,95155.67
2018-08-18T20:00:59.860Z,95157.41
2018-08-18T20:03:29.020Z,95148.70
2018-08-18T20:05:58.158Z,95152.03
2018-08-18T20:08:28.000Z,95155.52
2018-08-18T20:10:58.340Z,95156.91
2018-08-18T20:13:28.707Z,95164.11
2018-08-18T20:16:00.014Z,95162.52
2018-08-18T20:18:29.494Z,95171.23
2018-08-18T20:20:59.332Z,95162.52
2018-08-18T20:23:28.130Z,95152.94
2018-08-18T20:25:57.367Z,95164.30
2018-08-18T20:28:26.430Z,95166.58
2018-08-18T20:30:55.531Z,95178.74
2018-08-18T20:33:24.512Z,95177.58
2018-08-18T20:35:53.945Z,95177.91
2018-08-18T20:38:22.987Z,95181.14
2018-08-18T20:40:52.344Z,95179.61
2018-08-18T20:43:21.296Z,95183.78
2018-08-18T20:45:50.712Z,95182.63
2018-08-18T20:48:22.445Z,95180.88
2018-08-18T20:50:51.867Z,95188.62
2018-08-18T20:53:21.499Z,95185.28
2018-08-18T20:56:03.140Z,95190.11
2018-08-18T20:58:35.102Z,95198.19
2018-08-18T21:01:04.387Z,95197.86
2018-08-18T21:03:47.039Z,95203.97
2018-08-18T21:06:16.986Z,95203.41
2018-08-18T21:08:46.059Z,95205.67
2018-08-18T21:11:15.139Z,95210.47
2018-08-18T21:13:47.369Z,95202.44
2018-08-18T21:16:16.891Z,95204.28
2018-08-18T21:18:45.819Z,95202.63
2018-08-18T21:21:32.427Z,95205.95
2018-08-18T21:24:01.319Z,95205.27
2018-08-18T21:26:30.513Z,95208.89
2018-08-18T21:28:59.664Z,95204.45
2018-08-18T21:31:34.731Z,95212.10
2018-08-18T21:34:04.899Z,95208.64
2018-08-18T21:36:34.323Z,95215.53
2018-08-18T21:39:06.863Z,95213.57
2018-08-18T21:41:39.554Z,95218.75
2018-08-18T21:44:10.246Z,95211.44
2018-08-18T21:46:39.686Z,95212.72
2018-08-18T21:49:08.914Z,95206.89
2018-08-18T21:51:37.794Z,95213.18
2018-08-18T21:54:06.863Z,95216.58
2018-08-18T21:56:38.558Z,95209.59
2018-08-18T21:59:09.051Z,95214.00
2018-08-18T22:01:38.079Z,95214.13
2018-08-18T22:04:07.582Z,95222.74
2018-08-18T22:06:36.555Z,95222.74
2018-08-18T22:09:19.949Z,95223.53
2018-08-18T22:11:48.826Z,95229.98
2018-08-18T22:14:18.524Z,95230.22
2018-08-18T22:16:55.076Z,95231.79
2018-08-18T22:19:23.969Z,95228.48
2018-08-18T22:21:52.913Z,95222.91
2018-08-18T22:24:23.169Z,95231.61
2018-08-18T22:26:52.374Z,95223.64
2018-08-18T22:29:26.206Z,95219.67
2018-08-18T22:31:55.482Z,95218.94
2018-08-18T22:34:24.475Z,95217.62
2018-08-18T22:37:00.949Z,95218.34
2018-08-18T22:39:29.954Z,95217.21
2018-08-18T22:41:59.553Z,95215.42
2018-08-18T22:44:29.003Z,95222.52
2018-08-18T22:46:58.018Z,95218.59
2018-08-18T22:49:27.230Z,95220.88
2018-08-18T22:51:56.198Z,95220.25
2018-08-18T22:54:25.473Z,95215.89
2018-08-18T22:56:59.683Z,95216.06
2018-08-18T22:59:28.659Z,95214.97
2018-08-18T23:01:57.440Z,95211.84
2018-08-18T23:04:33.980Z,95210.62
2018-08-18T23:07:04.534Z,95211.25
2018-08-18T23:09:33.307Z,95206.27
2018-08-18T23:12:04.246Z,95209.52
2018-08-18T23:14:34.813Z,95216.20
2018-08-18T23:17:03.939Z,95210.79
2018-08-18T23:19:34.235Z,95216.78
2018-08-18T23:22:03.518Z,95222.41
2018-08-18T23:24:34.854Z,95222.41
2018-08-18T23:27:04.120Z,95211.25
2018-08-18T23:29:32.968Z,95216.78
2018-08-18T23:32:13.365Z,95212.13
2018-08-18T23:34:42.231Z,95217.24
2018-08-18T23:37:15.723Z,95219.40
2018-08-18T23:39:45.232Z,95223.45
2018-08-18T23:42:16.095Z,95220.06
2018-08-18T23:44:45.240Z,95223.42
2018-08-18T23:47:14.157Z,95220.05
2018-08-18T23:49:44.118Z,95217.70
2018-08-18T23:52:13.723Z,95219.32
2018-08-18T23:54:42.462Z,95220.05
2018-08-18T23:57:11.817Z,95221.59
2018-08-18T23:59:41.390Z,95219.98
